PGT149 KFSM-KDAL
Flight info
| Callsign | PGT149 |
|---|---|
| Flight time | N/A |
| Altitude | 28000 |
| Route | FSM FINGR1 |
| Aircraft | A20N/M-SDE2E3FGHIRWXY/LB1 |
Departure
| Time | 2026-04-14 02:20 |
|---|---|
| Airport | Fort Smith Regional Airport (KFSM) |
Arrival
| Time | N/A |
|---|---|
| Airport | Dallas Love Field (KDAL) |
| Time | Latitude | Longitude | Altitude | Speed | Heading |
|---|---|---|---|---|---|
| 2026-04-14 01:32 | 35.33683 | -94.37120 | 460 ft | 0 kts | 77° |
| 2026-04-14 02:14 | 35.33685 | -94.37100 | 460 ft | 5 kts | 83° |
| 2026-04-14 02:14 | 35.33675 | -94.37040 | 458 ft | 9 kts | 107° |
| 2026-04-14 02:15 | 35.33639 | -94.36955 | 458 ft | 13 kts | 109° |
| 2026-04-14 02:15 | 35.33639 | -94.36830 | 457 ft | 17 kts | 81° |
| 2026-04-14 02:15 | 35.33660 | -94.36676 | 456 ft | 20 kts | 83° |
| 2026-04-14 02:15 | 35.33684 | -94.36499 | 454 ft | 22 kts | 81° |
| 2026-04-14 02:16 | 35.33707 | -94.36303 | 455 ft | 24 kts | 81° |
| 2026-04-14 02:16 | 35.33733 | -94.36093 | 455 ft | 26 kts | 80° |
| 2026-04-14 02:16 | 35.33762 | -94.35871 | 454 ft | 27 kts | 81° |
| 2026-04-14 02:16 | 35.33791 | -94.35642 | 453 ft | 23 kts | 80° |
| 2026-04-14 02:17 | 35.33778 | -94.35534 | 453 ft | 12 kts | 127° |
| 2026-04-14 02:17 | 35.33766 | -94.35526 | 453 ft | 0 kts | 163° |
| 2026-04-14 02:18 | 35.33765 | -94.35525 | 453 ft | 1 kts | 163° |
| 2026-04-14 02:18 | 35.33749 | -94.35520 | 454 ft | 5 kts | 163° |
| 2026-04-14 02:18 | 35.33697 | -94.35539 | 454 ft | 10 kts | 238° |
| 2026-04-14 02:19 | 35.33681 | -94.35620 | 454 ft | 0 kts | 259° |
| 2026-04-14 02:19 | 35.33654 | -94.35813 | 455 ft | 64 kts | 261° |
| 2026-04-14 02:19 | 35.33533 | -94.36719 | 458 ft | 145 kts | 260° |
| 2026-04-14 02:19 | 35.33364 | -94.38044 | 962 ft | 166 kts | 264° |
| 2026-04-14 02:20 | 35.33180 | -94.39501 | 1617 ft | 176 kts | 250° |
| 2026-04-14 02:20 | 35.32637 | -94.40714 | 2564 ft | 157 kts | 215° |
| 2026-04-14 02:20 | 35.31706 | -94.41457 | 3227 ft | 167 kts | 204° |
| 2026-04-14 02:20 | 35.30590 | -94.42138 | 3707 ft | 191 kts | 206° |
| 2026-04-14 02:21 | 35.29373 | -94.42972 | 4134 ft | 213 kts | 210° |
| 2026-04-14 02:21 | 35.28055 | -94.44020 | 4518 ft | 238 kts | 213° |
| 2026-04-14 02:21 | 35.26664 | -94.45225 | 4898 ft | 248 kts | 216° |
| 2026-04-14 02:21 | 35.25269 | -94.46486 | 5007 ft | 249 kts | 217° |
| 2026-04-14 02:22 | 35.23894 | -94.47741 | 5025 ft | 248 kts | 216° |
| 2026-04-14 02:22 | 35.22493 | -94.49005 | 5025 ft | 249 kts | 216° |
| 2026-04-14 02:22 | 35.21109 | -94.50253 | 5023 ft | 250 kts | 216° |
| 2026-04-14 02:22 | 35.19719 | -94.51508 | 5028 ft | 247 kts | 216° |
| 2026-04-14 02:23 | 35.18286 | -94.52702 | 5028 ft | 249 kts | 208° |
| 2026-04-14 02:23 | 35.16738 | -94.53647 | 5035 ft | 249 kts | 207° |
| 2026-04-14 02:23 | 35.15199 | -94.54600 | 5249 ft | 252 kts | 208° |
| 2026-04-14 02:23 | 35.13621 | -94.55584 | 5965 ft | 256 kts | 209° |
| 2026-04-14 02:24 | 35.12020 | -94.56581 | 6905 ft | 260 kts | 210° |
| 2026-04-14 02:24 | 35.10384 | -94.57598 | 7799 ft | 264 kts | 209° |
| 2026-04-14 02:24 | 35.08743 | -94.58608 | 8684 ft | 269 kts | 209° |
| 2026-04-14 02:24 | 35.07043 | -94.59647 | 9554 ft | 274 kts | 209° |
| 2026-04-14 02:25 | 35.05337 | -94.60685 | 10364 ft | 281 kts | 209° |
| 2026-04-14 02:25 | 35.03511 | -94.61807 | 10747 ft | 304 kts | 210° |
| 2026-04-14 02:25 | 35.01543 | -94.63033 | 11042 ft | 327 kts | 210° |
| 2026-04-14 02:25 | 34.99514 | -94.64298 | 11747 ft | 333 kts | 210° |
| 2026-04-14 02:26 | 34.97419 | -94.65592 | 12568 ft | 338 kts | 209° |
| 2026-04-14 02:26 | 34.95298 | -94.66890 | 13392 ft | 342 kts | 209° |
| 2026-04-14 02:26 | 34.93180 | -94.68187 | 14156 ft | 346 kts | 209° |
| 2026-04-14 02:26 | 34.91019 | -94.69509 | 14946 ft | 349 kts | 209° |
| 2026-04-14 02:27 | 34.88838 | -94.70843 | 15739 ft | 351 kts | 210° |
| 2026-04-14 02:27 | 34.86843 | -94.72547 | 16499 ft | 349 kts | 223° |
| 2026-04-14 02:27 | 34.85039 | -94.74508 | 17231 ft | 352 kts | 224° |
| 2026-04-14 02:27 | 34.83207 | -94.76538 | 17967 ft | 355 kts | 224° |
| 2026-04-14 02:28 | 34.81391 | -94.78558 | 18625 ft | 357 kts | 224° |
| 2026-04-14 02:28 | 34.79549 | -94.80606 | 19274 ft | 359 kts | 224° |
| 2026-04-14 02:28 | 34.78080 | -94.82232 | 19770 ft | 361 kts | 224° |
| 2026-04-14 02:28 | 34.77002 | -94.83421 | 20125 ft | 363 kts | 225° |
| 2026-04-14 02:29 | 34.75245 | -94.85358 | 20709 ft | 365 kts | 224° |
| 2026-04-14 02:29 | 34.73452 | -94.87325 | 21302 ft | 367 kts | 224° |
| 2026-04-14 02:29 | 34.71566 | -94.89385 | 21908 ft | 370 kts | 224° |
| 2026-04-14 02:29 | 34.69635 | -94.91483 | 22527 ft | 372 kts | 224° |
| 2026-04-14 02:30 | 34.67692 | -94.93587 | 23145 ft | 374 kts | 224° |
| 2026-04-14 02:30 | 34.65769 | -94.95688 | 23718 ft | 377 kts | 224° |
| 2026-04-14 02:30 | 34.63809 | -94.97829 | 24228 ft | 379 kts | 224° |
| 2026-04-14 02:30 | 34.61836 | -94.99979 | 24711 ft | 381 kts | 224° |
| 2026-04-14 02:31 | 34.59859 | -95.02132 | 25210 ft | 384 kts | 224° |
| 2026-04-14 02:31 | 34.57884 | -95.04284 | 25688 ft | 386 kts | 224° |
| 2026-04-14 02:31 | 34.55874 | -95.06474 | 26158 ft | 388 kts | 224° |
| 2026-04-14 02:31 | 34.53861 | -95.08666 | 26621 ft | 390 kts | 224° |
| 2026-04-14 02:32 | 34.51849 | -95.10859 | 27055 ft | 393 kts | 224° |
| 2026-04-14 02:32 | 34.49809 | -95.13086 | 27487 ft | 395 kts | 224° |
| 2026-04-14 02:32 | 34.47784 | -95.15298 | 27879 ft | 398 kts | 224° |
| 2026-04-14 02:32 | 34.45716 | -95.17560 | 28009 ft | 399 kts | 224° |
| 2026-04-14 02:33 | 34.41587 | -95.22071 | 28033 ft | 399 kts | 224° |
| 2026-04-14 02:34 | 34.35400 | -95.28811 | 28039 ft | 400 kts | 224° |
| 2026-04-14 02:34 | 34.31265 | -95.33294 | 28041 ft | 400 kts | 224° |
| 2026-04-14 02:35 | 34.27116 | -95.37780 | 28043 ft | 401 kts | 224° |
| 2026-04-14 02:35 | 34.25662 | -95.39347 | 28047 ft | 400 kts | 224° |
| 2026-04-14 02:36 | 34.23247 | -95.41947 | 28046 ft | 401 kts | 224° |
| 2026-04-14 02:36 | 34.20639 | -95.44758 | 28048 ft | 401 kts | 224° |
| 2026-04-14 02:37 | 34.16475 | -95.49241 | 28053 ft | 401 kts | 224° |
| 2026-04-14 02:37 | 34.12419 | -95.53590 | 28054 ft | 401 kts | 224° |
| 2026-04-14 02:38 | 34.08254 | -95.58055 | 28053 ft | 402 kts | 224° |
| 2026-04-14 02:38 | 34.04063 | -95.62545 | 28052 ft | 403 kts | 224° |
| 2026-04-14 02:39 | 33.99885 | -95.67022 | 28053 ft | 403 kts | 224° |
| 2026-04-14 02:39 | 33.95693 | -95.71506 | 28051 ft | 404 kts | 224° |
| 2026-04-14 02:40 | 33.91544 | -95.75942 | 28043 ft | 404 kts | 224° |
| 2026-04-14 02:40 | 33.87277 | -95.80507 | 28041 ft | 405 kts | 224° |
| 2026-04-14 02:41 | 33.83061 | -95.85005 | 28032 ft | 406 kts | 224° |
| 2026-04-14 02:41 | 33.78841 | -95.89498 | 28031 ft | 406 kts | 224° |
| 2026-04-14 02:42 | 33.74621 | -95.93981 | 28033 ft | 406 kts | 224° |
| 2026-04-14 02:42 | 33.71079 | -95.97738 | 28036 ft | 407 kts | 224° |
| 2026-04-14 02:43 | 33.66859 | -96.02195 | 28033 ft | 407 kts | 223° |
| 2026-04-14 02:43 | 33.62585 | -96.06698 | 28037 ft | 408 kts | 223° |
| 2026-04-14 02:44 | 33.58341 | -96.11179 | 28035 ft | 407 kts | 224° |
| 2026-04-14 02:44 | 33.54089 | -96.15686 | 28034 ft | 407 kts | 224° |
| 2026-04-14 02:45 | 33.49850 | -96.20170 | 28035 ft | 408 kts | 224° |
| 2026-04-14 02:45 | 33.45572 | -96.24677 | 28035 ft | 408 kts | 224° |
| 2026-04-14 02:45 | 33.43463 | -96.26899 | 27840 ft | 405 kts | 224° |
| 2026-04-14 02:46 | 33.41353 | -96.29121 | 27348 ft | 403 kts | 224° |
| 2026-04-14 02:46 | 33.39226 | -96.31262 | 26755 ft | 402 kts | 218° |
| 2026-04-14 02:46 | 33.36750 | -96.32858 | 26121 ft | 405 kts | 204° |
| 2026-04-14 02:46 | 33.34025 | -96.33662 | 25504 ft | 409 kts | 190° |
| 2026-04-14 02:47 | 33.31162 | -96.33706 | 24910 ft | 412 kts | 182° |
| 2026-04-14 02:47 | 33.28297 | -96.33551 | 24316 ft | 409 kts | 182° |
| 2026-04-14 02:47 | 33.25492 | -96.33390 | 23765 ft | 406 kts | 183° |
| 2026-04-14 02:47 | 33.22724 | -96.33700 | 23127 ft | 394 kts | 198° |
| 2026-04-14 02:48 | 33.20216 | -96.34875 | 22522 ft | 383 kts | 213° |
| 2026-04-14 02:48 | 33.18132 | -96.36800 | 21891 ft | 375 kts | 226° |
| 2026-04-14 02:48 | 33.16373 | -96.39088 | 21292 ft | 371 kts | 231° |
| 2026-04-14 02:48 | 33.14727 | -96.41448 | 20710 ft | 367 kts | 232° |
| 2026-04-14 02:49 | 33.13148 | -96.43781 | 20149 ft | 364 kts | 232° |
| 2026-04-14 02:49 | 33.11566 | -96.46139 | 19582 ft | 361 kts | 232° |
| 2026-04-14 02:49 | 33.10003 | -96.48480 | 19028 ft | 358 kts | 233° |
| 2026-04-14 02:49 | 33.08473 | -96.50775 | 18493 ft | 355 kts | 232° |
| 2026-04-14 02:50 | 33.06938 | -96.53084 | 17909 ft | 352 kts | 232° |
| 2026-04-14 02:50 | 33.05412 | -96.55378 | 17263 ft | 351 kts | 233° |
| 2026-04-14 02:50 | 33.03916 | -96.57622 | 16647 ft | 349 kts | 232° |
| 2026-04-14 02:50 | 33.02401 | -96.59891 | 16048 ft | 347 kts | 233° |
| 2026-04-14 02:51 | 33.00889 | -96.62152 | 15447 ft | 346 kts | 233° |
| 2026-04-14 02:51 | 32.99387 | -96.64394 | 14890 ft | 345 kts | 233° |
| 2026-04-14 02:51 | 32.97910 | -96.66597 | 14328 ft | 343 kts | 233° |
| 2026-04-14 02:51 | 32.96416 | -96.68818 | 13794 ft | 342 kts | 233° |
| 2026-04-14 02:52 | 32.94923 | -96.71036 | 13228 ft | 340 kts | 233° |
| 2026-04-14 02:52 | 32.93454 | -96.73226 | 12687 ft | 337 kts | 232° |
| 2026-04-14 02:52 | 32.92016 | -96.75375 | 12173 ft | 334 kts | 233° |
| 2026-04-14 02:52 | 32.90576 | -96.77537 | 11646 ft | 331 kts | 232° |
| 2026-04-14 02:53 | 32.89142 | -96.79691 | 11086 ft | 329 kts | 232° |
| 2026-04-14 02:53 | 32.87746 | -96.81798 | 10582 ft | 327 kts | 233° |
| 2026-04-14 02:53 | 32.86369 | -96.83880 | 10334 ft | 321 kts | 232° |